This is the latest recevied weather packets stored in our database for station/object SQ4IXR-4. If no packets are shown the sender has not sent any weather packets the latest 10 day(s).
| Time | Temp. | Humidity | Pressure | Rain* | Wind** | Luminosity | Snow |
|---|---|---|---|---|---|---|---|
| 1787915944 | 23.33° C | 40% | 1026.8 hPa | - | - | - | - |
| 1787915120 | 23.89° C | 41% | 1026.9 hPa | - | - | - | - |
| 1787914297 | 23.33° C | 40% | 1026.9 hPa | - | - | - | - |
| 1787913473 | 23.33° C | 41% | 1027.1 hPa | - | - | - | - |
| 1787912650 | 23.89° C | 40% | 1027.1 hPa | - | - | - | - |
| 1787911826 | 23.33° C | 39% | 1027.5 hPa | - | - | - | - |
| 1787911002 | 24.44° C | 40% | 1027.2 hPa | - | - | - | - |
| 1787910179 | 23.33° C | 41% | 1027.4 hPa | - | - | - | - |
| 1787909355 | 23.33° C | 40% | 1027.5 hPa | - | - | - | - |
| 1787908533 | 23.89° C | 39% | 1027.6 hPa | - | - | - | - |
| 1787907722 | 27.22° C | 32% | 1027.4 hPa | - | - | - | - |
| 1787906898 | 32.22° C | 25% | 1027.2 hPa | - | - | - | - |
| 1787906072 | 28.89° C | 29% | 1027.6 hPa | - | - | - | - |
| 1787905259 | 33.89° C | 23% | 1027.6 hPa | - | - | - | - |
| 1787904426 | 33.89° C | 23% | 1027.7 hPa | - | - | - | - |
| 1787903608 | 33.89° C | 23% | 1027.9 hPa | - | - | - | - |
| 1787902784 | 35° C | 23% | 1028.1 hPa | - | - | - | - |
| 1787901959 | 32.78° C | 25% | 1028.2 hPa | - | - | - | - |
| 1787901133 | 33.33° C | 25% | 1028.2 hPa | - | - | - | - |
| 1787900316 | 34.44° C | 23% | 1028.2 hPa | - | - | - | - |
| 1787899483 | 31.67° C | 27% | 1028.2 hPa | - | - | - | - |
| 1787898659 | 32.78° C | 26% | 1028.1 hPa | - | - | - | - |
| 1787897829 | 31.11° C | 29% | 1028.3 hPa | - | - | - | - |
| 1787897001 | 29.44° C | 32% | 1028.4 hPa | - | - | - | - |
| 1787896162 | 22.78° C | 47% | 1029.1 hPa | - | - | - | - |
* Rain since midnight (hover to see other rain measurements)
** Current wind speed in m/s (hover to see current wind gust speed)